createdAt,value
2022-12-20T20:41:12.313Z,22.10
2022-12-20T20:43:45.297Z,25.33
2022-12-20T20:46:20.931Z,22.48
2022-12-20T20:48:48.465Z,23.33
2022-12-20T20:51:16.195Z,24.27
2022-12-20T20:53:42.987Z,23.85
2022-12-20T20:56:09.684Z,26.75
2022-12-20T20:58:36.774Z,20.35
2022-12-20T21:01:08.443Z,21.88
2022-12-20T21:03:35.551Z,19.48
2022-12-20T21:08:48.641Z,20.98
2022-12-20T21:11:15.541Z,21.83
2022-12-20T21:13:42.036Z,23.00
2022-12-20T21:16:16.032Z,28.33
2022-12-20T21:18:42.585Z,26.17
2022-12-20T21:21:10.897Z,26.42
2022-12-20T21:23:38.261Z,25.70
2022-12-20T21:26:05.744Z,28.45
2022-12-20T21:28:32.148Z,27.15
2022-12-20T21:31:05.430Z,25.17
2022-12-20T21:33:32.208Z,28.73
2022-12-20T21:36:03.715Z,25.38
2022-12-20T21:38:35.265Z,28.27
2022-12-20T21:41:02.694Z,25.23
2022-12-20T21:43:29.854Z,20.85
2022-12-20T21:45:56.651Z,20.45
2022-12-20T21:48:24.307Z,17.65
2022-12-20T21:51:00.109Z,20.33
2022-12-20T21:53:26.975Z,18.00
2022-12-20T21:55:58.819Z,17.05
2022-12-20T21:58:26.742Z,18.38
2022-12-20T22:00:55.286Z,18.05
2022-12-20T22:03:23.419Z,18.25
2022-12-20T22:05:52.092Z,20.27
2022-12-20T22:08:20.470Z,26.42
2022-12-20T22:10:47.131Z,20.73
2022-12-20T22:13:13.767Z,27.67
2022-12-20T22:15:42.234Z,20.27
2022-12-20T22:18:08.714Z,17.58
2022-12-20T22:20:36.040Z,19.33
2022-12-20T22:23:02.821Z,20.35
2022-12-20T22:25:30.099Z,18.83
2022-12-20T22:27:56.517Z,25.08
2022-12-20T22:30:22.962Z,19.70
2022-12-20T22:32:49.491Z,16.30
2022-12-20T22:35:22.258Z,15.63
2022-12-20T22:37:49.234Z,16.13
2022-12-20T22:40:15.704Z,19.33
2022-12-20T22:42:44.438Z,21.60
2022-12-20T22:45:11.338Z,20.88
2022-12-20T22:47:41.530Z,18.38
2022-12-20T22:50:08.590Z,18.35
2022-12-20T22:52:35.038Z,20.77
2022-12-20T22:55:01.528Z,18.38
2022-12-20T22:57:29.025Z,17.88
2022-12-20T22:59:59.432Z,17.40
2022-12-20T23:02:28.134Z,25.65
2022-12-20T23:04:55.741Z,16.38
2022-12-20T23:07:22.218Z,22.25
2022-12-20T23:09:48.849Z,21.70
2022-12-20T23:12:36.952Z,18.13
2022-12-20T23:15:26.546Z,20.73
2022-12-20T23:17:52.960Z,16.25
2022-12-20T23:20:37.629Z,15.85
2022-12-20T23:23:04.089Z,14.35
2022-12-20T23:25:30.493Z,15.20
2022-12-20T23:27:56.868Z,13.02
2022-12-20T23:30:24.429Z,14.98
2022-12-20T23:32:51.142Z,13.63
2022-12-20T23:35:20.323Z,16.15
2022-12-20T23:37:47.792Z,14.88
2022-12-20T23:40:16.324Z,17.08
2022-12-20T23:42:43.251Z,15.40
2022-12-20T23:45:10.621Z,15.68
2022-12-20T23:47:37.141Z,15.10
2022-12-20T23:50:03.957Z,13.77
2022-12-20T23:52:30.441Z,13.65
2022-12-20T23:54:56.843Z,14.75
2022-12-20T23:57:23.273Z,25.38
2022-12-20T23:59:49.692Z,22.92
